createdAt,value
2018-05-06T00:00:09.050Z,4.32
2018-05-06T00:01:15.914Z,4.80
2018-05-06T00:02:22.794Z,5.55
2018-05-06T00:03:29.638Z,6.45
2018-05-06T00:04:36.577Z,5.25
2018-05-06T00:05:43.466Z,5.35
2018-05-06T00:06:50.138Z,5.80
2018-05-06T00:07:57.706Z,5.37
2018-05-06T00:09:04.917Z,5.65
2018-05-06T00:10:11.812Z,5.97
2018-05-06T00:11:18.477Z,6.25
2018-05-06T00:12:25.776Z,5.85
2018-05-06T00:13:32.671Z,5.82
2018-05-06T00:14:39.479Z,5.85
2018-05-06T00:15:46.591Z,5.70
2018-05-06T00:16:54.348Z,6.70
2018-05-06T00:18:01.410Z,7.53
2018-05-06T00:19:08.372Z,6.30
2018-05-06T00:20:15.259Z,6.93
2018-05-06T00:21:22.048Z,7.37
2018-05-06T00:22:28.692Z,8.40
2018-05-06T00:23:36.447Z,7.65
2018-05-06T00:24:43.337Z,7.95
2018-05-06T00:25:50.109Z,7.20
2018-05-06T00:26:57.005Z,7.80
2018-05-06T00:28:03.746Z,6.90
2018-05-06T00:29:10.886Z,6.65
2018-05-06T00:30:17.596Z,7.60
2018-05-06T00:31:24.632Z,6.97
2018-05-06T00:32:31.436Z,6.60
2018-05-06T00:33:38.661Z,7.30
2018-05-06T00:34:45.723Z,5.65
2018-05-06T00:35:52.503Z,6.30
2018-05-06T00:36:59.378Z,5.20
2018-05-06T00:38:06.280Z,5.90
2018-05-06T00:39:13.130Z,5.47
2018-05-06T00:40:19.854Z,5.55
2018-05-06T00:41:26.949Z,5.37
2018-05-06T00:42:33.993Z,5.82
2018-05-06T00:43:40.903Z,5.00
2018-05-06T00:44:47.702Z,6.30
2018-05-06T00:45:54.585Z,5.50
2018-05-06T00:47:01.281Z,5.80
2018-05-06T00:48:07.960Z,5.87
2018-05-06T00:49:14.796Z,5.30
2018-05-06T00:50:21.973Z,5.40
2018-05-06T00:51:28.716Z,4.83
2018-05-06T00:52:35.896Z,5.18
2018-05-06T00:53:42.903Z,5.40
2018-05-06T00:54:49.594Z,5.50
2018-05-06T00:55:56.399Z,5.33
2018-05-06T00:57:03.543Z,5.12
2018-05-06T00:58:10.294Z,5.05
2018-05-06T00:59:16.989Z,4.20
2018-05-06T01:00:23.768Z,4.60
2018-05-06T01:01:30.637Z,5.25
2018-05-06T01:02:37.410Z,4.00
2018-05-06T01:03:45.262Z,4.80
2018-05-06T01:04:52.013Z,5.78
2018-05-06T01:05:58.877Z,5.20
2018-05-06T01:07:06.139Z,4.80
2018-05-06T01:08:12.915Z,4.78
2018-05-06T01:09:19.785Z,5.03
2018-05-06T01:10:26.932Z,5.00
2018-05-06T01:11:33.652Z,5.80
2018-05-06T01:12:40.579Z,4.40
2018-05-06T01:13:47.598Z,4.68
2018-05-06T01:14:54.343Z,4.60
2018-05-06T01:16:02.455Z,4.20
2018-05-06T01:17:09.615Z,4.47
2018-05-06T01:18:16.366Z,5.20
2018-05-06T01:19:23.278Z,4.07
2018-05-06T01:20:30.846Z,4.40
2018-05-06T01:21:37.686Z,4.18
2018-05-06T01:22:44.693Z,4.00
2018-05-06T01:23:51.526Z,4.40
2018-05-06T01:24:58.242Z,4.57
2018-05-06T01:26:05.157Z,4.10
2018-05-06T01:27:12.016Z,5.40
2018-05-06T01:28:18.817Z,4.75
2018-05-06T01:29:25.692Z,4.60
2018-05-06T01:30:32.404Z,5.40
2018-05-06T01:31:39.116Z,5.00
2018-05-06T01:32:46.775Z,4.70
2018-05-06T01:33:53.611Z,4.20
2018-05-06T01:35:01.525Z,4.43
2018-05-06T01:36:08.227Z,4.50
2018-05-06T01:37:14.990Z,4.62
2018-05-06T01:38:21.662Z,4.00
2018-05-06T01:39:28.351Z,4.30
2018-05-06T01:40:35.063Z,4.40
2018-05-06T01:41:41.853Z,4.12
2018-05-06T01:42:48.614Z,4.45
2018-05-06T01:43:55.374Z,3.70
2018-05-06T01:45:02.200Z,4.55
2018-05-06T01:46:08.925Z,4.10
2018-05-06T01:47:15.849Z,4.20
2018-05-06T01:48:22.757Z,4.10
2018-05-06T01:49:29.752Z,4.50
2018-05-06T01:50:36.432Z,3.42
2018-05-06T01:51:43.172Z,4.00
2018-05-06T01:52:49.964Z,4.30
2018-05-06T01:53:56.775Z,4.30
2018-05-06T01:55:03.644Z,4.10
2018-05-06T01:56:10.875Z,3.83
2018-05-06T01:57:18.390Z,4.07
2018-05-06T01:58:25.007Z,3.62
2018-05-06T01:59:31.842Z,3.90
2018-05-06T02:00:39.600Z,4.50
2018-05-06T02:01:46.342Z,4.25
2018-05-06T02:02:53.401Z,4.15
2018-05-06T02:04:00.198Z,4.12
2018-05-06T02:05:07.713Z,4.60
2018-05-06T02:06:14.465Z,4.12
2018-05-06T02:07:21.449Z,4.28
2018-05-06T02:08:28.268Z,3.92
2018-05-06T02:09:35.332Z,4.47
2018-05-06T02:10:42.181Z,4.85
2018-05-06T02:11:49.391Z,4.35
2018-05-06T02:12:56.490Z,4.43
2018-05-06T02:14:04.155Z,4.30
2018-05-06T02:15:11.691Z,3.90
2018-05-06T02:16:18.431Z,4.10
2018-05-06T02:17:25.499Z,4.43
2018-05-06T02:18:32.251Z,4.57
2018-05-06T02:19:38.979Z,4.45
2018-05-06T02:20:45.798Z,4.17
2018-05-06T02:21:52.922Z,4.25
2018-05-06T02:22:59.666Z,3.70
2018-05-06T02:24:06.794Z,4.12
2018-05-06T02:25:14.894Z,4.10
2018-05-06T02:26:21.585Z,4.47
2018-05-06T02:27:28.297Z,4.00
2018-05-06T02:28:35.386Z,4.28
2018-05-06T02:29:42.681Z,3.80
2018-05-06T02:30:49.397Z,4.35
2018-05-06T02:31:56.229Z,4.40
2018-05-06T02:33:03.285Z,4.25
2018-05-06T02:34:10.278Z,4.30
2018-05-06T02:35:17.234Z,3.72
2018-05-06T02:36:24.229Z,3.92
2018-05-06T02:37:31.080Z,4.30
2018-05-06T02:38:38.600Z,3.90
2018-05-06T02:39:45.382Z,3.33
2018-05-06T02:40:52.082Z,4.05
2018-05-06T02:41:59.031Z,4.20
2018-05-06T02:43:06.354Z,3.90
2018-05-06T02:44:14.126Z,4.03
2018-05-06T02:45:20.950Z,3.75
2018-05-06T02:46:27.978Z,4.00
2018-05-06T02:47:34.746Z,3.40
2018-05-06T02:48:41.494Z,3.73
2018-05-06T02:49:48.186Z,3.50
2018-05-06T02:50:55.178Z,4.35
2018-05-06T02:52:02.857Z,3.50
2018-05-06T02:53:10.140Z,3.62
2018-05-06T02:54:16.848Z,3.70
2018-05-06T02:55:23.608Z,4.07
2018-05-06T02:56:30.795Z,3.90
2018-05-06T02:57:37.499Z,3.95
2018-05-06T02:58:44.215Z,3.45
2018-05-06T02:59:51.015Z,3.60
2018-05-06T03:00:57.835Z,3.62
2018-05-06T03:02:04.742Z,4.32
2018-05-06T03:03:11.422Z,3.93
2018-05-06T03:04:18.179Z,3.60
2018-05-06T03:05:24.994Z,3.20
2018-05-06T03:06:32.477Z,4.03
2018-05-06T03:07:39.193Z,3.70
2018-05-06T03:08:45.994Z,3.83
2018-05-06T03:09:52.832Z,4.62
2018-05-06T03:10:59.617Z,3.97
2018-05-06T03:12:06.284Z,4.12
2018-05-06T03:13:13.160Z,3.80
2018-05-06T03:14:19.976Z,3.90
2018-05-06T03:15:27.356Z,4.18
2018-05-06T03:16:34.448Z,3.62
2018-05-06T03:17:41.527Z,3.85
2018-05-06T03:18:48.295Z,3.90
2018-05-06T03:19:55.087Z,3.75
2018-05-06T03:21:02.190Z,3.90
2018-05-06T03:22:09.003Z,3.80
2018-05-06T03:23:15.708Z,3.42
2018-05-06T03:24:22.547Z,3.60
2018-05-06T03:25:29.447Z,3.70
2018-05-06T03:26:36.141Z,4.03
2018-05-06T03:27:42.901Z,3.58
2018-05-06T03:28:50.061Z,3.50
2018-05-06T03:29:57.081Z,19.15
2018-05-06T03:31:04.432Z,12.88
2018-05-06T03:32:11.093Z,6.82
2018-05-06T03:33:17.872Z,5.43
2018-05-06T03:34:24.809Z,4.15
2018-05-06T03:35:31.617Z,3.92
2018-05-06T03:36:38.580Z,4.50
2018-05-06T03:37:45.341Z,3.80
2018-05-06T03:38:52.320Z,3.60
2018-05-06T03:39:59.228Z,4.18
2018-05-06T03:41:05.968Z,3.62
2018-05-06T03:42:12.678Z,3.70
2018-05-06T03:43:19.353Z,3.90
2018-05-06T03:44:26.139Z,3.67
2018-05-06T03:45:33.015Z,3.78
2018-05-06T03:46:39.786Z,4.50
2018-05-06T03:47:46.603Z,4.10
2018-05-06T03:48:53.451Z,3.55
2018-05-06T03:50:00.190Z,4.00
2018-05-06T03:51:07.896Z,4.50
2018-05-06T03:52:14.633Z,3.80
2018-05-06T03:53:21.352Z,3.55
2018-05-06T03:54:28.067Z,3.70
2018-05-06T03:55:35.282Z,5.00
2018-05-06T03:56:47.004Z,3.60
2018-05-06T03:57:59.247Z,3.87
2018-05-06T03:59:11.427Z,5.22
2018-05-06T04:00:23.331Z,3.90
2018-05-06T04:01:30.072Z,3.80
2018-05-06T04:02:37.087Z,3.80
2018-05-06T04:03:43.827Z,4.12
2018-05-06T04:04:50.739Z,3.28
2018-05-06T04:05:58.082Z,3.50
2018-05-06T04:07:04.750Z,4.22
2018-05-06T04:08:11.708Z,4.80
2018-05-06T04:09:18.421Z,4.10
2018-05-06T04:10:25.437Z,4.55
2018-05-06T04:11:32.229Z,3.30
2018-05-06T04:12:39.037Z,3.70
2018-05-06T04:13:45.820Z,3.33
2018-05-06T04:14:52.977Z,3.87
2018-05-06T04:16:00.147Z,4.10
2018-05-06T04:17:07.456Z,4.50
2018-05-06T04:18:14.705Z,3.80
2018-05-06T04:19:21.403Z,3.87
2018-05-06T04:20:28.224Z,4.00
2018-05-06T04:21:34.984Z,4.10
2018-05-06T04:22:41.851Z,4.40
2018-05-06T04:23:49.914Z,5.05
2018-05-06T04:24:56.654Z,4.30
2018-05-06T04:26:03.418Z,5.20
2018-05-06T04:27:10.329Z,4.40
2018-05-06T04:28:17.622Z,4.40
2018-05-06T04:29:24.590Z,4.22
2018-05-06T04:30:32.060Z,4.00
2018-05-06T04:31:38.797Z,4.03
2018-05-06T04:32:45.748Z,3.57
2018-05-06T04:33:52.601Z,3.87
2018-05-06T04:34:59.798Z,3.60
2018-05-06T04:36:06.557Z,4.30
2018-05-06T04:37:13.834Z,5.20
2018-05-06T04:38:20.503Z,6.62
2018-05-06T04:39:27.746Z,5.10
2018-05-06T04:40:36.325Z,4.65
2018-05-06T04:41:43.035Z,4.57
2018-05-06T04:42:50.024Z,4.40
2018-05-06T04:43:56.841Z,4.32
2018-05-06T04:45:04.029Z,4.10
2018-05-06T04:46:11.014Z,4.65
2018-05-06T04:47:17.813Z,3.58
2018-05-06T04:48:24.582Z,4.37
2018-05-06T04:49:31.889Z,3.60
2018-05-06T04:50:38.638Z,3.97
2018-05-06T04:51:45.482Z,3.75
2018-05-06T04:52:52.285Z,4.40
2018-05-06T04:54:00.026Z,4.25
2018-05-06T04:55:06.673Z,4.10
2018-05-06T04:56:13.516Z,4.12
2018-05-06T04:57:20.383Z,4.47
2018-05-06T04:58:27.330Z,4.40
2018-05-06T04:59:34.079Z,4.50
2018-05-06T05:00:41.688Z,4.32
2018-05-06T05:01:48.337Z,3.67
2018-05-06T05:02:55.062Z,5.32
2018-05-06T05:04:02.005Z,4.60
2018-05-06T05:05:08.740Z,3.80
2018-05-06T05:06:15.459Z,4.60
2018-05-06T05:07:22.941Z,5.70
2018-05-06T05:08:29.661Z,4.93
2018-05-06T05:09:36.437Z,5.40
2018-05-06T05:10:43.181Z,5.10
2018-05-06T05:11:49.993Z,4.50
2018-05-06T05:12:56.788Z,6.35
2018-05-06T05:14:03.551Z,5.93
2018-05-06T05:15:10.284Z,6.20
2018-05-06T05:16:17.011Z,10.48
2018-05-06T05:17:23.892Z,7.40
2018-05-06T05:18:30.645Z,10.20
2018-05-06T05:19:37.420Z,12.02
2018-05-06T05:20:44.203Z,7.18
2018-05-06T05:21:51.314Z,14.60
2018-05-06T05:22:58.286Z,26.92
2018-05-06T05:24:05.043Z,10.02
2018-05-06T05:25:11.860Z,6.75
2018-05-06T05:26:18.734Z,5.33
2018-05-06T05:27:25.540Z,4.90
2018-05-06T05:28:32.300Z,4.72
2018-05-06T05:29:39.004Z,5.05
2018-05-06T05:30:45.826Z,4.43
2018-05-06T05:31:52.548Z,4.20
2018-05-06T05:32:59.374Z,4.28
2018-05-06T05:34:06.688Z,10.95
2018-05-06T05:35:14.065Z,16.58
2018-05-06T05:36:20.958Z,8.05
2018-05-06T05:37:27.956Z,8.57
2018-05-06T05:38:34.790Z,31.83
2018-05-06T05:39:41.707Z,20.42
2018-05-06T05:40:48.475Z,20.77
2018-05-06T05:41:55.735Z,3.50
2018-05-06T05:43:02.839Z,8.88
2018-05-06T05:44:09.806Z,3.70
2018-05-06T05:45:16.813Z,3.87
2018-05-06T05:46:24.110Z,3.95
2018-05-06T05:47:30.987Z,4.00
2018-05-06T05:48:38.033Z,4.40
2018-05-06T05:49:45.287Z,3.42
2018-05-06T05:50:52.110Z,3.65
2018-05-06T05:51:59.048Z,9.48
2018-05-06T05:53:05.990Z,6.80
2018-05-06T05:54:13.018Z,4.28
2018-05-06T05:55:20.052Z,31.02
2018-05-06T05:56:26.803Z,7.82
2018-05-06T05:57:33.781Z,16.37
2018-05-06T05:58:42.023Z,5.18
2018-05-06T05:59:49.237Z,3.50
2018-05-06T06:00:55.978Z,3.92
2018-05-06T06:02:03.169Z,4.62
2018-05-06T06:03:10.501Z,6.07
2018-05-06T06:04:17.334Z,4.78
2018-05-06T06:05:24.097Z,5.10
2018-05-06T06:06:31.122Z,3.50
2018-05-06T06:07:38.082Z,3.78
2018-05-06T06:08:44.873Z,3.28
2018-05-06T06:09:51.594Z,4.12
2018-05-06T06:10:58.713Z,3.83
2018-05-06T06:12:05.469Z,3.30
2018-05-06T06:13:13.371Z,4.32
2018-05-06T06:14:20.084Z,3.40
2018-05-06T06:15:26.864Z,3.80
2018-05-06T06:16:34.825Z,4.10
2018-05-06T06:17:42.313Z,5.95
2018-05-06T06:18:49.580Z,4.83
2018-05-06T06:19:56.512Z,3.85
2018-05-06T06:21:03.267Z,4.37
2018-05-06T06:22:10.383Z,3.08
2018-05-06T06:23:17.354Z,3.70
2018-05-06T06:24:24.243Z,4.15
2018-05-06T06:25:30.971Z,4.60
2018-05-06T06:26:38.634Z,3.83
2018-05-06T06:27:45.394Z,3.05
2018-05-06T06:28:52.583Z,2.95
2018-05-06T06:29:59.246Z,5.90
2018-05-06T06:31:06.413Z,3.17
2018-05-06T06:32:13.157Z,3.33
2018-05-06T06:33:20.220Z,10.88
2018-05-06T06:34:26.939Z,7.93
2018-05-06T06:35:33.879Z,5.45
2018-05-06T06:36:41.938Z,4.53
2018-05-06T06:37:48.660Z,4.97
2018-05-06T06:38:56.293Z,8.52
2018-05-06T06:40:03.507Z,51.97
2018-05-06T06:41:10.405Z,41.25
2018-05-06T06:42:17.195Z,18.00
2018-05-06T06:43:23.910Z,9.40
2018-05-06T06:44:30.968Z,7.20
2018-05-06T06:45:37.792Z,8.13
2018-05-06T06:46:44.546Z,8.93
2018-05-06T06:47:51.702Z,26.35
2018-05-06T06:48:58.576Z,22.13
2018-05-06T06:50:05.433Z,6.53
2018-05-06T06:51:12.393Z,9.52
2018-05-06T06:52:19.456Z,7.30
2018-05-06T06:53:26.264Z,64.65
2018-05-06T06:54:33.093Z,27.58
2018-05-06T06:55:40.104Z,51.80
2018-05-06T06:56:47.131Z,7.10
2018-05-06T06:57:53.947Z,9.00
2018-05-06T06:59:00.733Z,5.95
2018-05-06T07:00:07.747Z,4.33
2018-05-06T07:01:14.679Z,8.95
2018-05-06T07:02:21.831Z,46.97
2018-05-06T07:03:29.474Z,21.80
2018-05-06T07:04:37.442Z,36.55
2018-05-06T07:05:44.258Z,14.18
2018-05-06T07:06:51.269Z,25.50
2018-05-06T07:07:58.236Z,56.85
2018-05-06T07:09:05.338Z,63.95
2018-05-06T07:10:12.198Z,27.25
2018-05-06T07:11:20.186Z,35.47
2018-05-06T07:12:26.887Z,32.30
2018-05-06T07:13:34.061Z,43.90
2018-05-06T07:14:40.968Z,18.20
2018-05-06T07:15:48.342Z,12.82
2018-05-06T07:16:55.239Z,26.10
2018-05-06T07:18:03.148Z,14.57
2018-05-06T07:19:10.354Z,21.83
2018-05-06T07:20:17.100Z,33.72
2018-05-06T07:21:23.924Z,24.15
2018-05-06T07:22:30.896Z,15.10
2018-05-06T07:23:37.671Z,4.82
2018-05-06T07:24:45.440Z,19.27
2018-05-06T07:25:52.196Z,22.13
2018-05-06T07:26:59.031Z,24.70
2018-05-06T07:28:06.046Z,25.92
2018-05-06T07:29:12.922Z,56.97
2018-05-06T07:30:20.024Z,18.98
2018-05-06T07:31:26.801Z,11.95
2018-05-06T07:32:34.596Z,21.20
2018-05-06T07:33:41.777Z,15.90
2018-05-06T07:34:48.629Z,7.70
2018-05-06T07:35:55.763Z,3.95
2018-05-06T07:37:03.010Z,5.05
2018-05-06T07:38:10.261Z,4.32
2018-05-06T07:39:17.130Z,4.28
2018-05-06T07:40:23.885Z,7.00
2018-05-06T07:41:32.160Z,2.65
2018-05-06T07:42:39.038Z,9.95
2018-05-06T07:43:46.765Z,9.32
2018-05-06T07:44:53.576Z,5.20
2018-05-06T07:46:00.488Z,4.50
2018-05-06T07:47:07.856Z,3.20
2018-05-06T07:48:14.754Z,3.08
2018-05-06T07:49:21.706Z,3.12
2018-05-06T07:50:28.542Z,3.03
2018-05-06T07:51:35.602Z,2.60
2018-05-06T07:52:44.768Z,2.20
2018-05-06T07:53:51.549Z,2.45
2018-05-06T07:54:58.260Z,2.40
2018-05-06T07:56:05.468Z,2.20
2018-05-06T07:57:12.235Z,2.40
2018-05-06T07:58:19.042Z,5.80
2018-05-06T07:59:25.985Z,7.82
2018-05-06T08:00:32.816Z,3.47
2018-05-06T08:01:40.175Z,2.50
2018-05-06T08:02:47.188Z,5.35
2018-05-06T08:03:54.058Z,3.15
2018-05-06T08:05:00.973Z,3.97
2018-05-06T08:06:08.275Z,4.40
2018-05-06T08:07:40.731Z,25.05
2018-05-06T08:08:47.488Z,15.20
2018-05-06T08:09:54.207Z,3.33
2018-05-06T08:11:01.042Z,4.80
2018-05-06T08:12:07.946Z,4.35
2018-05-06T08:13:14.782Z,2.75
2018-05-06T08:14:21.906Z,2.75
2018-05-06T08:15:29.052Z,4.90
2018-05-06T08:16:36.383Z,2.35
2018-05-06T08:17:43.131Z,3.00
2018-05-06T08:18:49.867Z,2.92
2018-05-06T08:19:56.853Z,3.12
2018-05-06T08:21:04.613Z,3.10
2018-05-06T08:22:11.420Z,3.28
2018-05-06T08:23:18.413Z,2.30
2018-05-06T08:24:25.319Z,2.90
2018-05-06T08:25:32.627Z,3.00
2018-05-06T08:26:40.390Z,2.35
2018-05-06T08:27:47.535Z,2.40
2018-05-06T08:28:54.810Z,2.12
2018-05-06T08:30:02.634Z,2.00
2018-05-06T08:31:09.562Z,2.30
2018-05-06T08:32:17.242Z,3.60
2018-05-06T08:33:24.248Z,2.50
2018-05-06T08:34:31.104Z,2.40
2018-05-06T08:35:38.014Z,2.20
2018-05-06T08:36:44.911Z,1.87
2018-05-06T08:37:51.613Z,2.25
2018-05-06T08:38:58.497Z,2.58
2018-05-06T08:40:05.730Z,2.37
2018-05-06T08:41:12.622Z,2.58
2018-05-06T08:42:19.796Z,2.60
2018-05-06T08:43:27.195Z,2.65
2018-05-06T08:44:34.121Z,2.10
2018-05-06T08:45:41.221Z,2.40
2018-05-06T08:46:48.594Z,2.30
2018-05-06T08:47:55.372Z,1.97
2018-05-06T08:49:02.263Z,2.00
2018-05-06T08:50:09.075Z,2.20
2018-05-06T08:51:16.246Z,2.00
2018-05-06T08:52:23.594Z,2.03
2018-05-06T08:53:30.730Z,1.92
2018-05-06T08:54:37.616Z,2.20
2018-05-06T08:55:45.217Z,2.00
2018-05-06T08:56:52.717Z,1.90
2018-05-06T08:58:14.688Z,1.80
2018-05-06T08:59:22.637Z,2.00
2018-05-06T09:00:29.867Z,2.40
2018-05-06T09:01:37.108Z,1.87
2018-05-06T09:02:44.450Z,2.35
2018-05-06T09:03:51.570Z,3.42
2018-05-06T09:04:58.486Z,2.65
2018-05-06T09:06:05.372Z,2.00
2018-05-06T09:07:13.523Z,1.60
2018-05-06T09:08:20.661Z,1.83
2018-05-06T09:09:28.469Z,2.17
2018-05-06T09:10:35.487Z,1.90
2018-05-06T09:11:42.660Z,1.90
2018-05-06T09:12:49.989Z,2.10
2018-05-06T09:13:57.525Z,2.30
2018-05-06T09:15:04.477Z,2.60
2018-05-06T09:16:11.363Z,2.00
2018-05-06T09:17:18.167Z,2.35
2018-05-06T09:18:25.005Z,2.00
2018-05-06T09:19:31.804Z,2.95
2018-05-06T09:20:38.850Z,3.53
2018-05-06T09:21:46.494Z,4.05
2018-05-06T09:22:53.295Z,6.35
2018-05-06T09:24:00.828Z,25.75
2018-05-06T09:25:07.711Z,10.85
2018-05-06T09:26:14.578Z,4.70
2018-05-06T09:27:23.635Z,19.60
2018-05-06T09:28:31.143Z,8.43
2018-05-06T09:29:38.358Z,11.65
2018-05-06T09:30:45.261Z,6.30
2018-05-06T09:31:52.158Z,13.07
2018-05-06T09:33:00.019Z,11.63
2018-05-06T09:34:07.165Z,63.60
2018-05-06T09:35:14.429Z,81.18
2018-05-06T09:36:22.113Z,63.75
2018-05-06T09:37:29.917Z,92.53
2018-05-06T09:38:36.809Z,80.47
2018-05-06T09:39:44.072Z,22.15
2018-05-06T09:40:56.169Z,41.83
2018-05-06T09:42:03.301Z,13.30
2018-05-06T09:43:10.168Z,10.75
2018-05-06T09:44:17.244Z,16.60
2018-05-06T09:45:24.247Z,53.33
2018-05-06T09:46:31.528Z,41.50
2018-05-06T09:47:38.583Z,26.42
2018-05-06T09:48:45.632Z,9.18
2018-05-06T09:49:53.632Z,10.82
2018-05-06T09:51:00.569Z,9.57
2018-05-06T09:52:09.160Z,6.62
2018-05-06T09:53:16.626Z,7.95
2018-05-06T09:54:23.539Z,37.75
2018-05-06T09:55:31.001Z,12.48
2018-05-06T09:56:38.229Z,58.03
2018-05-06T09:57:46.092Z,8.88
2018-05-06T09:58:55.104Z,6.80
2018-05-06T10:00:02.227Z,15.60
2018-05-06T10:01:11.027Z,12.32
2018-05-06T10:02:18.108Z,20.58
2018-05-06T10:03:25.063Z,23.80
2018-05-06T10:04:33.332Z,31.45
2018-05-06T10:05:40.232Z,6.18
2018-05-06T10:06:47.302Z,20.15
2018-05-06T10:07:55.250Z,7.00
2018-05-06T10:09:02.100Z,5.77
2018-05-06T10:10:09.022Z,21.00
2018-05-06T10:11:15.925Z,14.45
2018-05-06T10:12:23.141Z,13.60
2018-05-06T10:13:30.230Z,17.65
2018-05-06T10:14:37.210Z,11.38
2018-05-06T10:15:44.127Z,18.70
2018-05-06T10:16:53.216Z,17.92
2018-05-06T10:18:00.418Z,30.48
2018-05-06T10:19:07.276Z,23.38
2018-05-06T10:20:14.541Z,6.80
2018-05-06T10:21:21.284Z,20.12
2018-05-06T10:22:28.748Z,26.35
2018-05-06T10:23:35.859Z,31.90
2018-05-06T10:24:43.110Z,24.30
2018-05-06T10:25:49.834Z,9.05
2018-05-06T10:26:56.659Z,3.55
2018-05-06T10:28:03.628Z,10.98
2018-05-06T10:29:10.524Z,22.95
2018-05-06T10:30:17.355Z,36.15
2018-05-06T10:31:24.325Z,29.98
2018-05-06T10:32:31.237Z,17.80
2018-05-06T10:33:49.217Z,17.58
2018-05-06T10:34:56.425Z,27.73
2018-05-06T10:36:03.271Z,27.13
2018-05-06T10:37:12.208Z,19.80
2018-05-06T10:38:20.839Z,21.03
2018-05-06T10:39:27.964Z,11.90
2018-05-06T10:40:35.140Z,60.38
2018-05-06T10:41:41.984Z,36.45
2018-05-06T10:42:50.260Z,39.30
2018-05-06T10:43:57.723Z,45.25
2018-05-06T10:45:04.490Z,21.85
2018-05-06T10:46:11.971Z,16.30
2018-05-06T10:47:23.526Z,15.02
2018-05-06T10:48:30.387Z,28.33
2018-05-06T10:49:37.562Z,6.05
2018-05-06T10:50:44.422Z,16.45
2018-05-06T10:51:52.071Z,15.88
2018-05-06T10:52:58.894Z,19.37
2018-05-06T10:54:05.821Z,6.35
2018-05-06T10:55:13.689Z,14.95
2018-05-06T10:56:20.833Z,6.33
2018-05-06T10:57:28.650Z,6.32
2018-05-06T10:58:35.557Z,18.08
2018-05-06T10:59:42.452Z,9.70
2018-05-06T11:00:50.603Z,30.05
2018-05-06T11:01:58.271Z,7.15
2018-05-06T11:03:05.828Z,7.07
2018-05-06T11:04:12.945Z,7.55
2018-05-06T11:05:20.566Z,4.53
2018-05-06T11:06:27.734Z,15.20
2018-05-06T11:07:34.904Z,22.25
2018-05-06T11:08:41.859Z,60.90
2018-05-06T11:09:48.613Z,88.40
2018-05-06T11:10:56.534Z,73.18
2018-05-06T11:12:03.462Z,64.35
2018-05-06T11:13:11.167Z,17.58
2018-05-06T11:14:18.095Z,6.90
2018-05-06T11:16:28.044Z,6.43
2018-05-06T11:17:34.817Z,6.05
2018-05-06T11:18:42.234Z,4.55
2018-05-06T11:19:49.008Z,3.00
2018-05-06T11:20:59.168Z,2.40
2018-05-06T11:22:06.419Z,10.18
2018-05-06T11:23:13.311Z,4.43
2018-05-06T11:24:20.165Z,3.67
2018-05-06T11:25:27.283Z,4.85
2018-05-06T11:26:34.376Z,12.52
2018-05-06T11:27:41.135Z,16.25
2018-05-06T11:28:47.893Z,4.37
2018-05-06T11:29:56.010Z,3.70
2018-05-06T11:31:02.979Z,4.28
2018-05-06T11:32:10.387Z,4.50
2018-05-06T11:33:17.169Z,3.05
2018-05-06T11:34:24.108Z,9.20
2018-05-06T11:35:31.393Z,12.35
2018-05-06T11:36:38.267Z,3.60
2018-05-06T11:37:45.234Z,4.20
2018-05-06T11:38:52.958Z,7.82
2018-05-06T11:40:00.125Z,9.35
2018-05-06T11:41:07.076Z,3.37
2018-05-06T11:42:14.110Z,2.12
2018-05-06T11:43:21.188Z,2.30
2018-05-06T11:44:28.339Z,7.43
2018-05-06T11:45:35.280Z,5.97
2018-05-06T11:46:42.670Z,3.25
2018-05-06T11:47:49.620Z,2.30
2018-05-06T11:48:57.788Z,2.60
2018-05-06T11:50:05.662Z,1.50
2018-05-06T11:51:12.882Z,1.60
2018-05-06T11:52:20.203Z,1.60
2018-05-06T11:53:27.477Z,2.47
2018-05-06T11:54:34.323Z,3.40
2018-05-06T11:55:41.259Z,2.15
2018-05-06T11:56:48.193Z,1.65
2018-05-06T11:57:56.009Z,1.42
2018-05-06T11:59:02.823Z,1.80
2018-05-06T12:00:10.275Z,2.60
2018-05-06T12:01:17.084Z,1.80
2018-05-06T12:02:24.434Z,2.10
2018-05-06T12:03:32.069Z,2.10
2018-05-06T12:04:39.043Z,2.20
2018-05-06T12:05:46.125Z,1.80
2018-05-06T12:06:53.941Z,1.70
2018-05-06T12:08:00.800Z,1.65
2018-05-06T12:09:08.166Z,1.65
2018-05-06T12:10:14.982Z,1.80
2018-05-06T12:11:21.813Z,1.60
2018-05-06T12:12:29.866Z,1.60
2018-05-06T12:13:36.982Z,1.60
2018-05-06T12:14:43.963Z,1.35
2018-05-06T12:15:51.429Z,1.42
2018-05-06T12:16:58.471Z,1.65
2018-05-06T12:18:05.809Z,1.48
2018-05-06T12:19:13.057Z,1.60
2018-05-06T12:20:22.177Z,1.30
2018-05-06T12:21:29.428Z,1.42
2018-05-06T12:22:36.227Z,1.60
2018-05-06T12:23:43.511Z,1.40
2018-05-06T12:24:51.848Z,1.48
2018-05-06T12:26:00.097Z,1.67
2018-05-06T12:27:07.724Z,1.60
2018-05-06T12:28:14.712Z,1.50
2018-05-06T12:29:21.596Z,1.25
2018-05-06T12:30:28.650Z,1.50
2018-05-06T12:31:36.342Z,1.50
2018-05-06T12:32:43.301Z,1.42
2018-05-06T12:33:50.184Z,1.20
2018-05-06T12:34:57.082Z,1.35
2018-05-06T12:36:03.943Z,1.40
2018-05-06T12:37:11.127Z,1.60
2018-05-06T12:38:18.363Z,1.40
2018-05-06T12:39:25.427Z,1.45
2018-05-06T12:40:32.439Z,1.30
2018-05-06T12:41:39.764Z,2.50
2018-05-06T12:42:46.793Z,1.80
2018-05-06T12:43:54.629Z,1.70
2018-05-06T12:45:01.421Z,1.02
2018-05-06T12:46:08.515Z,4.18
2018-05-06T12:47:15.420Z,44.63
2018-05-06T12:48:22.221Z,18.20
2018-05-06T12:49:29.268Z,20.35
2018-05-06T12:50:36.091Z,22.10
2018-05-06T12:51:42.856Z,16.58
2018-05-06T12:52:50.361Z,15.52
2018-05-06T12:53:57.482Z,6.97
2018-05-06T12:55:04.721Z,7.00
2018-05-06T12:56:14.473Z,1.55
2018-05-06T12:57:21.351Z,8.00
2018-05-06T12:58:29.001Z,7.82
2018-05-06T12:59:36.231Z,7.75
2018-05-06T13:00:43.919Z,8.27
2018-05-06T13:01:50.834Z,8.20
2018-05-06T13:02:58.079Z,7.53
2018-05-06T13:04:04.914Z,10.05
2018-05-06T13:05:11.552Z,2.30
2018-05-06T13:06:18.638Z,8.50
2018-05-06T13:07:26.423Z,7.97
2018-05-06T13:08:33.415Z,4.97
2018-05-06T13:09:40.350Z,6.18
2018-05-06T13:10:47.370Z,5.95
2018-05-06T13:11:55.894Z,2.60
2018-05-06T13:13:08.910Z,1.58
2018-05-06T13:14:16.230Z,5.55
2018-05-06T13:15:23.117Z,5.03
2018-05-06T13:16:30.429Z,3.50
2018-05-06T13:17:38.343Z,1.90
2018-05-06T13:18:45.235Z,1.95
2018-05-06T13:19:54.077Z,2.87
2018-05-06T13:21:01.068Z,4.03
2018-05-06T13:22:07.926Z,3.20
2018-05-06T13:23:14.779Z,3.40
2018-05-06T13:24:21.620Z,1.45
2018-05-06T13:25:28.380Z,2.00
2018-05-06T13:26:35.302Z,2.00
2018-05-06T13:27:45.475Z,2.62
2018-05-06T13:28:52.215Z,2.20
2018-05-06T13:29:59.311Z,1.95
2018-05-06T13:31:06.501Z,1.98
2018-05-06T13:32:13.691Z,1.53
2018-05-06T13:33:20.567Z,1.60
2018-05-06T13:34:28.065Z,1.60
2018-05-06T13:35:35.881Z,1.60
2018-05-06T13:36:43.392Z,2.95
2018-05-06T13:37:54.062Z,1.95
2018-05-06T13:39:01.004Z,2.40
2018-05-06T13:40:09.113Z,2.45
2018-05-06T13:41:16.009Z,1.10
2018-05-06T13:42:22.969Z,1.10
2018-05-06T13:43:30.117Z,4.20
2018-05-06T13:44:36.968Z,3.37
2018-05-06T13:45:44.320Z,4.50
2018-05-06T13:46:51.205Z,3.60
2018-05-06T13:47:58.588Z,3.70
2018-05-06T13:49:05.386Z,2.20
2018-05-06T13:50:12.785Z,1.98
2018-05-06T13:51:19.822Z,2.90
2018-05-06T13:52:26.715Z,6.97
2018-05-06T13:53:34.983Z,10.68
2018-05-06T13:54:42.152Z,8.02
2018-05-06T13:55:49.040Z,3.05
2018-05-06T13:56:55.902Z,1.90
2018-05-06T13:58:02.756Z,2.58
2018-05-06T13:59:10.201Z,1.90
2018-05-06T14:00:17.361Z,1.30
2018-05-06T14:01:24.213Z,1.90
2018-05-06T14:02:33.879Z,1.90
2018-05-06T14:03:41.011Z,1.65
2018-05-06T14:04:47.800Z,2.33
2018-05-06T14:05:54.560Z,2.47
2018-05-06T14:07:01.716Z,1.62
2018-05-06T14:08:08.517Z,1.80
2018-05-06T14:09:15.538Z,1.55
2018-05-06T14:10:22.744Z,0.93
2018-05-06T14:11:29.554Z,8.55
2018-05-06T14:12:36.233Z,8.20
2018-05-06T14:13:43.723Z,2.30
2018-05-06T14:14:50.590Z,1.55
2018-05-06T14:15:57.752Z,1.40
2018-05-06T14:17:04.949Z,2.47
2018-05-06T14:18:13.331Z,3.83
2018-05-06T14:19:20.263Z,4.12
2018-05-06T14:20:30.914Z,11.03
2018-05-06T14:21:39.676Z,13.13
2018-05-06T14:22:47.214Z,5.65
2018-05-06T14:23:54.245Z,7.37
2018-05-06T14:25:01.119Z,16.23
2018-05-06T14:26:08.051Z,21.40
2018-05-06T14:27:14.911Z,9.50
2018-05-06T14:28:21.963Z,16.17
2018-05-06T14:29:29.705Z,12.95
2018-05-06T14:30:37.937Z,8.27
2018-05-06T14:31:45.172Z,6.05
2018-05-06T14:32:52.173Z,7.18
2018-05-06T14:34:00.123Z,7.75
2018-05-06T14:35:07.337Z,5.25
2018-05-06T14:36:15.137Z,3.25
2018-05-06T14:37:22.140Z,2.20
2018-05-06T14:38:29.158Z,2.10
2018-05-06T14:39:36.144Z,3.23
2018-05-06T14:40:44.175Z,9.65
2018-05-06T14:41:51.661Z,5.90
2018-05-06T14:42:59.492Z,41.97
2018-05-06T14:44:07.364Z,35.53
2018-05-06T14:45:14.451Z,60.60
2018-05-06T14:46:25.741Z,96.85
2018-05-06T14:47:37.700Z,30.27
2018-05-06T14:48:45.378Z,13.30
2018-05-06T14:49:52.327Z,11.45